sensor_id;sensor_type;location;lat;lon;timestamp;pressure;altitude;pressure_sealevel;temperature;humidity
21359;BME280;13506;50.852;20.632;2023-02-11T00:01:07;99722.84;;;0.58;76.87
21359;BME280;13506;50.852;20.632;2023-02-11T00:03:36;99720.34;;;0.53;76.92
21359;BME280;13506;50.852;20.632;2023-02-11T00:06:06;99726.31;;;0.55;76.64
21359;BME280;13506;50.852;20.632;2023-02-11T00:08:35;99728.00;;;0.58;77.20
21359;BME280;13506;50.852;20.632;2023-02-11T00:11:04;99716.84;;;0.57;76.31
21359;BME280;13506;50.852;20.632;2023-02-11T00:13:32;99710.88;;;0.57;76.71
21359;BME280;13506;50.852;20.632;2023-02-11T00:16:04;99723.72;;;0.58;76.41
21359;BME280;13506;50.852;20.632;2023-02-11T00:18:34;99728.06;;;0.52;76.74
21359;BME280;13506;50.852;20.632;2023-02-11T00:21:06;99722.97;;;0.46;76.71
21359;BME280;13506;50.852;20.632;2023-02-11T00:23:35;99723.91;;;0.38;77.18
21359;BME280;13506;50.852;20.632;2023-02-11T00:26:04;99717.94;;;0.33;77.60
21359;BME280;13506;50.852;20.632;2023-02-11T00:28:39;99719.63;;;0.36;77.62
21359;BME280;13506;50.852;20.632;2023-02-11T00:31:10;99713.59;;;0.37;77.42
21359;BME280;13506;50.852;20.632;2023-02-11T00:33:41;99710.19;;;0.35;77.49
21359;BME280;13506;50.852;20.632;2023-02-11T00:36:13;99710.22;;;0.32;77.18
21359;BME280;13506;50.852;20.632;2023-02-11T00:38:42;99707.66;;;0.33;77.81
21359;BME280;13506;50.852;20.632;2023-02-11T00:41:11;99694.75;;;0.35;78.04
21359;BME280;13506;50.852;20.632;2023-02-11T00:43:40;99699.88;;;0.38;77.79
21359;BME280;13506;50.852;20.632;2023-02-11T00:46:08;99699.88;;;0.40;77.38
21359;BME280;13506;50.852;20.632;2023-02-11T00:48:36;99700.72;;;0.42;76.89
21359;BME280;13506;50.852;20.632;2023-02-11T00:51:06;99684.44;;;0.38;77.57
21359;BME280;13506;50.852;20.632;2023-02-11T00:53:35;99688.75;;;0.36;77.62
21359;BME280;13506;50.852;20.632;2023-02-11T00:56:03;99675.03;;;0.34;77.43
21359;BME280;13506;50.852;20.632;2023-02-11T00:58:32;99661.31;;;0.32;76.95
21359;BME280;13506;50.852;20.632;2023-02-11T01:01:00;99664.75;;;0.31;77.49
21359;BME280;13506;50.852;20.632;2023-02-11T01:03:28;99651.09;;;0.27;77.31
21359;BME280;13506;50.852;20.632;2023-02-11T01:05:56;99648.50;;;0.26;77.33
21359;BME280;13506;50.852;20.632;2023-02-11T01:08:26;99633.97;;;0.22;77.37
21359;BME280;13506;50.852;20.632;2023-02-11T01:10:55;99629.72;;;0.19;77.35
21359;BME280;13506;50.852;20.632;2023-02-11T01:13:25;99631.50;;;0.09;77.60
21359;BME280;13506;50.852;20.632;2023-02-11T01:15:54;99625.56;;;0.04;78.11
21359;BME280;13506;50.852;20.632;2023-02-11T01:18:22;99619.56;;;0.02;78.24
21359;BME280;13506;50.852;20.632;2023-02-11T01:20:51;99594.75;;;-0.05;78.49
21359;BME280;13506;50.852;20.632;2023-02-11T01:23:19;99627.28;;;0.02;79.05
21359;BME280;13506;50.852;20.632;2023-02-11T01:25:49;99611.00;;;0.00;78.35
21359;BME280;13506;50.852;20.632;2023-02-11T01:28:19;99619.63;;;-0.03;78.64
21359;BME280;13506;50.852;20.632;2023-02-11T01:30:47;99625.63;;;-0.04;79.14
21359;BME280;13506;50.852;20.632;2023-02-11T01:33:16;99623.09;;;-0.07;78.33
21359;BME280;13506;50.852;20.632;2023-02-11T01:35:44;99626.53;;;-0.12;78.74
21359;BME280;13506;50.852;20.632;2023-02-11T01:38:16;99611.22;;;-0.25;79.17
21359;BME280;13506;50.852;20.632;2023-02-11T01:40:51;99625.72;;;-0.16;78.43
21359;BME280;13506;50.852;20.632;2023-02-11T01:43:21;99623.13;;;-0.14;78.86
21359;BME280;13506;50.852;20.632;2023-02-11T01:46:02;99623.16;;;-0.17;79.11
21359;BME280;13506;50.852;20.632;2023-02-11T01:48:34;99609.47;;;-0.19;78.79
21359;BME280;13506;50.852;20.632;2023-02-11T01:51:10;99607.84;;;-0.28;78.82
21359;BME280;13506;50.852;20.632;2023-02-11T01:53:40;99612.97;;;-0.30;79.11
21359;BME280;13506;50.852;20.632;2023-02-11T01:56:30;99613.06;;;-0.39;78.82
21359;BME280;13506;50.852;20.632;2023-02-11T01:59:23;99607.97;;;-0.48;79.20
21359;BME280;13506;50.852;20.632;2023-02-11T02:01:58;99596.03;;;-0.58;79.96
21359;BME280;13506;50.852;20.632;2023-02-11T02:04:32;99581.50;;;-0.61;79.90
21359;BME280;13506;50.852;20.632;2023-02-11T02:07:07;99585.81;;;-0.68;79.81
21359;BME280;13506;50.852;20.632;2023-02-11T02:09:40;99570.41;;;-0.71;80.41
21359;BME280;13506;50.852;20.632;2023-02-11T02:12:11;99571.28;;;-0.72;80.21
21359;BME280;13506;50.852;20.632;2023-02-11T02:14:40;99570.44;;;-0.72;80.82
21359;BME280;13506;50.852;20.632;2023-02-11T02:17:11;99549.91;;;-0.74;80.58
21359;BME280;13506;50.852;20.632;2023-02-11T02:20:21;99553.34;;;-0.78;81.00
21359;BME280;13506;50.852;20.632;2023-02-11T02:32:42;99515.00;;;-1.04;81.30
21359;BME280;13506;50.852;20.632;2023-02-11T02:35:23;99509.00;;;-1.03;81.55
21359;BME280;13506;50.852;20.632;2023-02-11T02:37:58;99499.59;;;-1.04;81.94
21359;BME280;13506;50.852;20.632;2023-02-11T02:40:31;99487.63;;;-1.07;82.03
21359;BME280;13506;50.852;20.632;2023-02-11T02:43:03;99474.84;;;-1.13;82.06
21359;BME280;13506;50.852;20.632;2023-02-11T02:45:32;99481.69;;;-1.18;82.24
21359;BME280;13506;50.852;20.632;2023-02-11T02:48:02;99480.06;;;-1.33;82.16
21359;BME280;13506;50.852;20.632;2023-02-11T02:50:32;99472.38;;;-1.33;82.15
21359;BME280;13506;50.852;20.632;2023-02-11T02:53:16;99463.00;;;-1.38;82.27
21359;BME280;13506;50.852;20.632;2023-02-11T02:55:57;99461.31;;;-1.42;82.15
21359;BME280;13506;50.852;20.632;2023-02-11T02:59:02;99449.34;;;-1.43;82.29
21359;BME280;13506;50.852;20.632;2023-02-11T03:01:44;99442.53;;;-1.51;82.23
21359;BME280;13506;50.852;20.632;2023-02-11T03:04:23;99433.16;;;-1.58;81.89
21359;BME280;13506;50.852;20.632;2023-02-11T03:07:01;99421.25;;;-1.65;82.34
21359;BME280;13506;50.852;20.632;2023-02-11T03:09:35;99426.38;;;-1.67;81.63
21359;BME280;13506;50.852;20.632;2023-02-11T03:12:06;99422.97;;;-1.67;81.76
21359;BME280;13506;50.852;20.632;2023-02-11T03:14:35;99430.69;;;-1.72;81.68
21359;BME280;13506;50.852;20.632;2023-02-11T03:17:04;99429.81;;;-1.71;82.28
21359;BME280;13506;50.852;20.632;2023-02-11T03:19:36;99427.31;;;-1.80;82.08
21359;BME280;13506;50.852;20.632;2023-02-11T03:22:12;99425.56;;;-1.81;82.94
21359;BME280;13506;50.852;20.632;2023-02-11T03:24:44;99431.59;;;-1.80;82.67
21359;BME280;13506;50.852;20.632;2023-02-11T03:27:19;99423.88;;;-1.80;82.57
21359;BME280;13506;50.852;20.632;2023-02-11T03:29:52;99429.00;;;-1.82;82.36
21359;BME280;13506;50.852;20.632;2023-02-11T03:32:26;99420.47;;;-1.82;81.81
21359;BME280;13506;50.852;20.632;2023-02-11T03:34:59;99413.63;;;-1.80;82.17
21359;BME280;13506;50.852;20.632;2023-02-11T03:37:34;99399.97;;;-1.84;81.74
21359;BME280;13506;50.852;20.632;2023-02-11T03:40:07;99415.34;;;-1.82;82.43
21359;BME280;13506;50.852;20.632;2023-02-11T03:42:40;99407.66;;;-1.84;82.30
21359;BME280;13506;50.852;20.632;2023-02-11T03:45:14;99416.22;;;-1.88;82.45
21359;BME280;13506;50.852;20.632;2023-02-11T03:47:50;99411.06;;;-1.82;82.21
21359;BME280;13506;50.852;20.632;2023-02-11T03:50:22;99423.00;;;-1.79;82.23
21359;BME280;13506;50.852;20.632;2023-02-11T03:52:53;99412.75;;;-1.76;82.15
21359;BME280;13506;50.852;20.632;2023-02-11T03:55:23;99402.47;;;-1.72;81.98
21359;BME280;13506;50.852;20.632;2023-02-11T03:57:52;99399.91;;;-1.70;81.57
21359;BME280;13506;50.852;20.632;2023-02-11T04:00:21;99401.56;;;-1.64;81.36
21359;BME280;13506;50.852;20.632;2023-02-11T04:02:55;99399.84;;;-1.59;81.24
21359;BME280;13506;50.852;20.632;2023-02-11T04:05:25;99395.56;;;-1.59;81.03
21359;BME280;13506;50.852;20.632;2023-02-11T04:07:53;99399.81;;;-1.58;80.28
21359;BME280;13506;50.852;20.632;2023-02-11T04:10:21;99382.69;;;-1.56;80.35
21359;BME280;13506;50.852;20.632;2023-02-11T04:12:49;99382.69;;;-1.54;81.24
21359;BME280;13506;50.852;20.632;2023-02-11T04:15:18;99405.75;;;-1.51;80.86
21359;BME280;13506;50.852;20.632;2023-02-11T04:17:46;99420.25;;;-1.46;80.97
21359;BME280;13506;50.852;20.632;2023-02-11T04:20:14;99439.94;;;-1.46;81.49
21359;BME280;13506;50.852;20.632;2023-02-11T04:22:43;99439.06;;;-1.40;80.69
21359;BME280;13506;50.852;20.632;2023-02-11T04:25:12;99447.59;;;-1.35;81.07
21359;BME280;13506;50.852;20.632;2023-02-11T04:27:40;99444.97;;;-1.32;80.10
21359;BME280;13506;50.852;20.632;2023-02-11T04:30:09;99442.41;;;-1.32;80.11
21359;BME280;13506;50.852;20.632;2023-02-11T04:32:37;99427.84;;;-1.30;79.76
21359;BME280;13506;50.852;20.632;2023-02-11T04:35:05;99427.06;;;-1.35;80.00
21359;BME280;13506;50.852;20.632;2023-02-11T04:37:33;99415.06;;;-1.36;80.10
21359;BME280;13506;50.852;20.632;2023-02-11T04:40:04;99407.41;;;-1.38;80.08
21359;BME280;13506;50.852;20.632;2023-02-11T04:42:32;99385.19;;;-1.40;80.69
21359;BME280;13506;50.852;20.632;2023-02-11T04:45:00;99338.16;;;-1.46;80.56
21359;BME280;13506;50.852;20.632;2023-02-11T04:47:27;99254.41;;;-1.56;81.27
21359;BME280;13506;50.852;20.632;2023-02-11T04:49:55;99263.03;;;-1.66;81.94
21359;BME280;13506;50.852;20.632;2023-02-11T04:52:23;99285.41;;;-1.83;83.95
21359;BME280;13506;50.852;20.632;2023-02-11T04:54:51;99316.19;;;-1.85;84.02
21359;BME280;13506;50.852;20.632;2023-02-11T04:57:21;99328.16;;;-1.84;83.71
21359;BME280;13506;50.852;20.632;2023-02-11T04:59:49;99329.00;;;-1.80;84.51
21359;BME280;13506;50.852;20.632;2023-02-11T05:02:17;99308.44;;;-1.77;83.58
21359;BME280;13506;50.852;20.632;2023-02-11T05:04:45;99306.72;;;-1.74;83.63
21359;BME280;13506;50.852;20.632;2023-02-11T05:07:13;99305.81;;;-1.68;83.18
21359;BME280;13506;50.852;20.632;2023-02-11T05:09:41;99304.13;;;-1.71;83.90
21359;BME280;13506;50.852;20.632;2023-02-11T05:12:09;99298.94;;;-1.66;83.66
21359;BME280;13506;50.852;20.632;2023-02-11T05:14:38;99280.16;;;-1.63;83.69
21359;BME280;13506;50.852;20.632;2023-02-11T05:17:09;99294.66;;;-1.61;82.97
21359;BME280;13506;50.852;20.632;2023-02-11T05:19:37;99284.41;;;-1.62;83.24
21359;BME280;13506;50.852;20.632;2023-02-11T05:22:05;99286.13;;;-1.63;83.25
21359;BME280;13506;50.852;20.632;2023-02-11T05:24:35;99286.13;;;-1.63;83.07
21359;BME280;13506;50.852;20.632;2023-02-11T05:27:03;99280.16;;;-1.65;82.38
21359;BME280;13506;50.852;20.632;2023-02-11T05:29:31;99288.69;;;-1.63;83.14
21359;BME280;13506;50.852;20.632;2023-02-11T05:32:00;99281.78;;;-1.58;83.06
21359;BME280;13506;50.852;20.632;2023-02-11T05:34:29;99273.25;;;-1.58;82.62
21359;BME280;13506;50.852;20.632;2023-02-11T05:36:56;99271.53;;;-1.55;82.92
21359;BME280;13506;50.852;20.632;2023-02-11T05:39:25;99268.97;;;-1.55;82.38
21359;BME280;13506;50.852;20.632;2023-02-11T05:41:52;99266.38;;;-1.55;82.49
21359;BME280;13506;50.852;20.632;2023-02-11T05:44:21;99246.72;;;-1.56;82.63
21359;BME280;13506;50.852;20.632;2023-02-11T05:46:48;99255.28;;;-1.55;81.92
21359;BME280;13506;50.852;20.632;2023-02-11T05:49:18;99256.09;;;-1.52;82.24
21359;BME280;13506;50.852;20.632;2023-02-11T05:51:46;99246.72;;;-1.53;82.25
21359;BME280;13506;50.852;20.632;2023-02-11T05:54:14;99256.09;;;-1.52;81.76
21359;BME280;13506;50.852;20.632;2023-02-11T05:56:42;99250.13;;;-1.52;81.57
21359;BME280;13506;50.852;20.632;2023-02-11T05:59:12;99238.13;;;-1.50;82.10
21359;BME280;13506;50.852;20.632;2023-02-11T06:01:40;99252.69;;;-1.51;81.76
21359;BME280;13506;50.852;20.632;2023-02-11T06:04:09;99252.69;;;-1.51;81.77
21359;BME280;13506;50.852;20.632;2023-02-11T06:06:38;99266.34;;;-1.52;81.69
21359;BME280;13506;50.852;20.632;2023-02-11T06:09:07;99250.16;;;-1.55;82.67
21359;BME280;13506;50.852;20.632;2023-02-11T06:11:35;99252.72;;;-1.55;81.95
21359;BME280;13506;50.852;20.632;2023-02-11T06:14:04;99233.84;;;-1.50;82.00
21359;BME280;13506;50.852;20.632;2023-02-11T06:16:32;99230.38;;;-1.46;81.38
21359;BME280;13506;50.852;20.632;2023-02-11T06:19:00;99239.75;;;-1.41;81.26
21359;BME280;13506;50.852;20.632;2023-02-11T06:21:28;99243.16;;;-1.38;81.68
21359;BME280;13506;50.852;20.632;2023-02-11T06:23:58;99244.78;;;-1.32;81.62
21359;BME280;13506;50.852;20.632;2023-02-11T06:26:26;99243.06;;;-1.30;80.82
21359;BME280;13506;50.852;20.632;2023-02-11T06:28:54;99233.63;;;-1.25;80.36
21359;BME280;13506;50.852;20.632;2023-02-11T06:31:22;99247.25;;;-1.20;79.78
21359;BME280;13506;50.852;20.632;2023-02-11T06:33:50;99238.63;;;-1.16;80.35
21359;BME280;13506;50.852;20.632;2023-02-11T06:36:21;99237.81;;;-1.16;79.74
21359;BME280;13506;50.852;20.632;2023-02-11T06:38:50;99236.84;;;-1.08;79.23
21359;BME280;13506;50.852;20.632;2023-02-11T06:41:19;99249.63;;;-1.00;79.62
21359;BME280;13506;50.852;20.632;2023-02-11T06:43:48;99227.31;;;-0.96;78.66
21359;BME280;13506;50.852;20.632;2023-02-11T06:46:16;99239.28;;;-0.95;78.29
21359;BME280;13506;50.852;20.632;2023-02-11T06:48:44;99223.00;;;-0.93;78.13
21359;BME280;13506;50.852;20.632;2023-02-11T06:51:13;99220.34;;;-0.87;77.74
21359;BME280;13506;50.852;20.632;2023-02-11T06:53:43;99202.28;;;-0.79;77.72
21359;BME280;13506;50.852;20.632;2023-02-11T06:56:14;99204.75;;;-0.71;77.06
21359;BME280;13506;50.852;20.632;2023-02-11T06:58:44;99208.88;;;-0.59;76.40
21359;BME280;13506;50.852;20.632;2023-02-11T07:01:15;99201.88;;;-0.50;77.26
21359;BME280;13506;50.852;20.632;2023-02-11T07:03:44;99191.50;;;-0.42;74.93
21359;BME280;13506;50.852;20.632;2023-02-11T07:06:15;99199.81;;;-0.25;75.16
21359;BME280;13506;50.852;20.632;2023-02-11T07:08:44;99204.63;;;-0.03;74.81
21359;BME280;13506;50.852;20.632;2023-02-11T07:11:14;99205.63;;;0.43;73.65
21359;BME280;13506;50.852;20.632;2023-02-11T07:13:44;99180.69;;;0.91;70.64
21359;BME280;13506;50.852;20.632;2023-02-11T07:16:15;99180.34;;;1.50;68.19
21359;BME280;13506;50.852;20.632;2023-02-11T07:18:44;99185.00;;;1.73;66.29
21359;BME280;13506;50.852;20.632;2023-02-11T07:21:14;99180.66;;;1.75;64.98
21359;BME280;13506;50.852;20.632;2023-02-11T07:23:43;99181.00;;;1.97;63.36
21359;BME280;13506;50.852;20.632;2023-02-11T07:26:13;99166.06;;;2.45;62.70
21359;BME280;13506;50.852;20.632;2023-02-11T07:28:44;99170.63;;;3.00;62.11
21359;BME280;13506;50.852;20.632;2023-02-11T07:31:15;99157.91;;;3.80;58.29
21359;BME280;13506;50.852;20.632;2023-02-11T07:33:45;99150.00;;;4.37;54.40
21359;BME280;13506;50.852;20.632;2023-02-11T07:36:14;99159.06;;;4.50;54.20
21359;BME280;13506;50.852;20.632;2023-02-11T07:38:42;99155.31;;;4.82;53.82
21359;BME280;13506;50.852;20.632;2023-02-11T07:41:13;99155.72;;;4.72;53.04
21359;BME280;13506;50.852;20.632;2023-02-11T07:43:42;99153.28;;;4.42;53.71
21359;BME280;13506;50.852;20.632;2023-02-11T07:46:13;99163.66;;;4.42;52.49
21359;BME280;13506;50.852;20.632;2023-02-11T07:48:42;99150.19;;;4.81;53.26
21359;BME280;13506;50.852;20.632;2023-02-11T07:51:13;99152.81;;;5.28;50.51
21359;BME280;13506;50.852;20.632;2023-02-11T07:53:41;99156.69;;;5.40;50.45
21359;BME280;13506;50.852;20.632;2023-02-11T07:56:10;99156.84;;;5.59;50.39
21359;BME280;13506;50.852;20.632;2023-02-11T07:58:39;99144.34;;;5.91;48.71
21359;BME280;13506;50.852;20.632;2023-02-11T08:01:12;99139.31;;;6.49;45.98
21359;BME280;13506;50.852;20.632;2023-02-11T08:03:41;99132.22;;;7.13;45.84
21359;BME280;13506;50.852;20.632;2023-02-11T08:06:11;99133.25;;;7.46;45.67
21359;BME280;13506;50.852;20.632;2023-02-11T08:08:41;99136.19;;;7.58;44.19
21359;BME280;13506;50.852;20.632;2023-02-11T08:11:11;99131.28;;;7.14;44.27
21359;BME280;13506;50.852;20.632;2023-02-11T08:13:39;99114.84;;;7.13;44.56
21359;BME280;13506;50.852;20.632;2023-02-11T08:16:20;99115.75;;;6.73;45.04
21359;BME280;13506;50.852;20.632;2023-02-11T08:18:49;99114.03;;;6.12;46.05
21359;BME280;13506;50.852;20.632;2023-02-11T08:21:19;99125.19;;;5.49;47.26
21359;BME280;13506;50.852;20.632;2023-02-11T08:23:47;99106.69;;;4.65;48.73
21359;BME280;13506;50.852;20.632;2023-02-11T08:26:18;99118.59;;;3.94;50.99
21359;BME280;13506;50.852;20.632;2023-02-11T08:28:48;99127.91;;;3.47;52.40
21359;BME280;13506;50.852;20.632;2023-02-11T08:31:21;99115.38;;;2.73;54.54
21359;BME280;13506;50.852;20.632;2023-02-11T08:33:50;99119.59;;;2.10;56.65
21359;BME280;13506;50.852;20.632;2023-02-11T08:36:21;99101.03;;;1.60;59.88
21359;BME280;13506;50.852;20.632;2023-02-11T08:38:52;99106.78;;;1.35;60.82
21359;BME280;13506;50.852;20.632;2023-02-11T08:41:21;99108.16;;;1.11;61.89
21359;BME280;13506;50.852;20.632;2023-02-11T08:43:49;99092.31;;;0.89;62.93
21359;BME280;13506;50.852;20.632;2023-02-11T08:46:20;99109.53;;;0.86;64.14
21359;BME280;13506;50.852;20.632;2023-02-11T08:48:48;99113.06;;;0.82;64.86
21359;BME280;13506;50.852;20.632;2023-02-11T08:51:18;99116.53;;;0.81;64.56
21359;BME280;13506;50.852;20.632;2023-02-11T08:53:47;99115.63;;;0.82;65.59
21359;BME280;13506;50.852;20.632;2023-02-11T08:56:17;99117.50;;;0.75;66.29
21359;BME280;13506;50.852;20.632;2023-02-11T08:58:45;99115.72;;;0.77;65.64
21359;BME280;13506;50.852;20.632;2023-02-11T09:01:16;99144.88;;;0.79;66.39
21359;BME280;13506;50.852;20.632;2023-02-11T09:03:46;99129.53;;;0.73;67.05
21359;BME280;13506;50.852;20.632;2023-02-11T09:06:14;99144.13;;;0.75;67.05
21359;BME280;13506;50.852;20.632;2023-02-11T09:08:45;99144.16;;;0.72;67.25
21359;BME280;13506;50.852;20.632;2023-02-11T09:11:13;99143.31;;;0.72;66.92
21359;BME280;13506;50.852;20.632;2023-02-11T09:13:42;99132.91;;;0.78;66.91
21359;BME280;13506;50.852;20.632;2023-02-11T09:16:16;99126.97;;;0.73;68.21
21359;BME280;13506;50.852;20.632;2023-02-11T09:18:47;99134.03;;;0.63;68.73
21359;BME280;13506;50.852;20.632;2023-02-11T09:21:16;99132.34;;;0.61;68.99
21359;BME280;13506;50.852;20.632;2023-02-11T09:23:46;99129.03;;;0.55;69.37
21359;BME280;13506;50.852;20.632;2023-02-11T09:26:16;99126.53;;;0.52;70.63
21359;BME280;13506;50.852;20.632;2023-02-11T09:28:45;99123.84;;;0.58;70.28
21359;BME280;13506;50.852;20.632;2023-02-11T09:31:16;99123.66;;;0.68;70.23
21359;BME280;13506;50.852;20.632;2023-02-11T09:33:48;99118.31;;;0.77;69.96
21359;BME280;13506;50.852;20.632;2023-02-11T09:36:18;99123.28;;;0.86;69.75
21359;BME280;13506;50.852;20.632;2023-02-11T09:38:48;99127.44;;;0.93;69.87
21359;BME280;13506;50.852;20.632;2023-02-11T09:41:38;99115.25;;;1.02;70.02
21359;BME280;13506;50.852;20.632;2023-02-11T09:44:16;99128.75;;;1.11;69.56
21359;BME280;13506;50.852;20.632;2023-02-11T09:46:49;99123.47;;;1.19;69.54
21359;BME280;13506;50.852;20.632;2023-02-11T09:49:28;99114.75;;;1.25;69.92
21359;BME280;13506;50.852;20.632;2023-02-11T09:52:04;99121.59;;;1.26;69.33
21359;BME280;13506;50.852;20.632;2023-02-11T09:54:36;99119.84;;;1.26;69.87
21359;BME280;13506;50.852;20.632;2023-02-11T09:57:08;99104.47;;;1.23;70.54
21359;BME280;13506;50.852;20.632;2023-02-11T09:59:37;99101.88;;;1.23;70.81
21359;BME280;13506;50.852;20.632;2023-02-11T10:02:16;99089.94;;;1.19;70.98
21359;BME280;13506;50.852;20.632;2023-02-11T10:05:08;99074.56;;;1.16;71.39
21359;BME280;13506;50.852;20.632;2023-02-11T10:07:45;99054.84;;;1.13;72.22
21359;BME280;13506;50.852;20.632;2023-02-11T10:10:27;99053.91;;;1.17;72.17
21359;BME280;13506;50.852;20.632;2023-02-11T10:13:35;99036.06;;;1.10;73.29
21359;BME280;13506;50.852;20.632;2023-02-11T10:16:22;99025.81;;;1.07;74.36
21359;BME280;13506;50.852;20.632;2023-02-11T10:19:17;99001.88;;;1.02;74.99
21359;BME280;13506;50.852;20.632;2023-02-11T10:22:02;99003.38;;;1.12;75.78
21359;BME280;13506;50.852;20.632;2023-02-11T10:24:34;99001.66;;;1.11;75.95
21359;BME280;13506;50.852;20.632;2023-02-11T10:27:07;98986.06;;;1.17;76.31
21359;BME280;13506;50.852;20.632;2023-02-11T10:29:44;99006.44;;;1.26;75.96
21359;BME280;13506;50.852;20.632;2023-02-11T10:32:25;98986.34;;;1.40;75.53
21359;BME280;13506;50.852;20.632;2023-02-11T10:34:57;98967.50;;;1.38;75.40
21359;BME280;13506;50.852;20.632;2023-02-11T10:37:29;98975.19;;;1.40;75.65
21359;BME280;13506;50.852;20.632;2023-02-11T10:39:57;98972.66;;;1.38;76.05
21359;BME280;13506;50.852;20.632;2023-02-11T10:42:26;98985.63;;;1.35;76.88
21359;BME280;13506;50.852;20.632;2023-02-11T10:44:58;98976.28;;;1.31;77.45
21359;BME280;13506;50.852;20.632;2023-02-11T10:47:30;98948.75;;;1.32;77.85
21359;BME280;13506;50.852;20.632;2023-02-11T10:50:19;98959.75;;;1.38;78.24
21359;BME280;13506;50.852;20.632;2023-02-11T10:52:49;98959.03;;;1.33;78.24
21359;BME280;13506;50.852;20.632;2023-02-11T10:55:20;98960.44;;;1.45;77.83
21359;BME280;13506;50.852;20.632;2023-02-11T10:57:56;98965.53;;;1.50;78.03
21359;BME280;13506;50.852;20.632;2023-02-11T11:00:35;98966.31;;;1.52;77.31
21359;BME280;13506;50.852;20.632;2023-02-11T11:03:15;98969.72;;;1.54;77.29
21359;BME280;13506;50.852;20.632;2023-02-11T11:05:47;98956.75;;;1.55;77.10
21359;BME280;13506;50.852;20.632;2023-02-11T11:08:18;98954.97;;;1.59;77.26
21359;BME280;13506;50.852;20.632;2023-02-11T11:13:32;98969.34;;;1.68;77.07
21359;BME280;13506;50.852;20.632;2023-02-11T11:16:14;98972.03;;;1.63;78.54
21359;BME280;13506;50.852;20.632;2023-02-11T11:18:44;98974.94;;;1.51;79.31
21359;BME280;13506;50.852;20.632;2023-02-11T11:21:15;98970.00;;;1.42;80.47
21359;BME280;13506;50.852;20.632;2023-02-11T11:23:54;98958.97;;;1.36;81.29
21359;BME280;13506;50.852;20.632;2023-02-11T11:26:24;98953.94;;;1.30;83.67
21359;BME280;13506;50.852;20.632;2023-02-11T11:28:58;98947.25;;;1.25;83.81
21359;BME280;13506;50.852;20.632;2023-02-11T11:31:30;98945.47;;;1.27;85.26
21359;BME280;13506;50.852;20.632;2023-02-11T11:34:02;98948.78;;;1.30;86.20
21359;BME280;13506;50.852;20.632;2023-02-11T11:36:35;98939.19;;;1.37;85.76
21359;BME280;13506;50.852;20.632;2023-02-11T11:39:19;98945.91;;;1.43;85.42
21359;BME280;13506;50.852;20.632;2023-02-11T11:41:51;98937.34;;;1.42;86.21
21359;BME280;13506;50.852;20.632;2023-02-11T11:44:26;98947.00;;;1.34;86.72
21359;BME280;13506;50.852;20.632;2023-02-11T11:47:18;98949.72;;;1.28;87.57
21359;BME280;13506;50.852;20.632;2023-02-11T11:49:55;98939.69;;;1.17;87.37
21359;BME280;13506;50.852;20.632;2023-02-11T11:52:41;98948.16;;;1.22;87.75
21359;BME280;13506;50.852;20.632;2023-02-11T11:55:16;98933.66;;;1.18;87.95
21359;BME280;13506;50.852;20.632;2023-02-11T11:57:45;98936.09;;;1.24;87.98
21359;BME280;13506;50.852;20.632;2023-02-11T12:00:16;98941.16;;;1.27;88.17
21359;BME280;13506;50.852;20.632;2023-02-11T12:03:16;98917.16;;;1.25;87.97
21359;BME280;13506;50.852;20.632;2023-02-11T12:05:57;98915.38;;;1.27;87.76
21359;BME280;13506;50.852;20.632;2023-02-11T12:08:42;98939.38;;;1.29;87.94
21359;BME280;13506;50.852;20.632;2023-02-11T12:11:20;98930.69;;;1.33;87.71
21359;BME280;13506;50.852;20.632;2023-02-11T12:14:04;98921.91;;;1.40;88.45
21359;BME280;13506;50.852;20.632;2023-02-11T12:16:48;98914.13;;;1.44;88.03
21359;BME280;13506;50.852;20.632;2023-02-11T12:19:40;98914.97;;;1.43;88.25
21359;BME280;13506;50.852;20.632;2023-02-11T12:22:24;98895.31;;;1.38;89.58
21359;BME280;13506;50.852;20.632;2023-02-11T12:25:20;98894.59;;;1.33;89.57
21359;BME280;13506;50.852;20.632;2023-02-11T12:28:06;98884.28;;;1.33;89.94
21359;BME280;13506;50.852;20.632;2023-02-11T12:30:59;98878.22;;;1.36;90.77
21359;BME280;13506;50.852;20.632;2023-02-11T12:33:54;98874.75;;;1.37;90.35
21359;BME280;13506;50.852;20.632;2023-02-11T12:36:40;98860.16;;;1.36;91.55
21359;BME280;13506;50.852;20.632;2023-02-11T12:39:20;98843.03;;;1.35;91.87
21359;BME280;13506;50.852;20.632;2023-02-11T12:42:09;98843.88;;;1.35;91.93
21359;BME280;13506;50.852;20.632;2023-02-11T12:45:13;98825.88;;;1.32;92.55
21359;BME280;13506;50.852;20.632;2023-02-11T12:47:53;98837.22;;;1.27;93.12
21359;BME280;13506;50.852;20.632;2023-02-11T12:50:32;98851.22;;;1.16;94.76
21359;BME280;13506;50.852;20.632;2023-02-11T12:53:22;98859.00;;;1.15;96.10
21359;BME280;13506;50.852;20.632;2023-02-11T12:55:59;98888.09;;;1.20;95.63
21359;BME280;13506;50.852;20.632;2023-02-11T12:58:33;98869.97;;;1.23;95.40
21359;BME280;13506;50.852;20.632;2023-02-11T13:01:05;98884.59;;;1.23;96.04
21359;BME280;13506;50.852;20.632;2023-02-11T13:03:39;98874.25;;;1.24;96.17
21359;BME280;13506;50.852;20.632;2023-02-11T13:06:12;98884.47;;;1.27;96.58
21359;BME280;13506;50.852;20.632;2023-02-11T13:08:46;98878.41;;;1.28;96.03
21359;BME280;13506;50.852;20.632;2023-02-11T13:11:20;98882.59;;;1.32;95.87
21359;BME280;13506;50.852;20.632;2023-02-11T13:13:54;98892.91;;;1.32;96.63
21359;BME280;13506;50.852;20.632;2023-02-11T13:16:35;98891.28;;;1.28;97.26
21359;BME280;13506;50.852;20.632;2023-02-11T13:19:13;98890.31;;;1.32;96.91
21359;BME280;13506;50.852;20.632;2023-02-11T13:22:02;98905.84;;;1.31;97.09
21359;BME280;13506;50.852;20.632;2023-02-11T13:24:39;98902.50;;;1.27;97.79
21359;BME280;13506;50.852;20.632;2023-02-11T13:27:19;98922.28;;;1.27;98.61
21359;BME280;13506;50.852;20.632;2023-02-11T13:33:19;98922.06;;;1.34;98.11
21359;BME280;13506;50.852;20.632;2023-02-11T13:36:13;98911.69;;;1.37;98.04
21359;BME280;13506;50.852;20.632;2023-02-11T13:38:51;98909.31;;;1.28;100.00
21359;BME280;13506;50.852;20.632;2023-02-11T13:41:24;98910.22;;;1.27;99.56